createdAt,value
2019-03-30T00:00:17.520Z,11.31
2019-03-30T00:01:23.029Z,11.25
2019-03-30T00:02:28.525Z,11.31
2019-03-30T00:03:34.027Z,11.21
2019-03-30T00:04:39.550Z,11.20
2019-03-30T00:05:45.057Z,11.25
2019-03-30T00:06:50.572Z,11.21
2019-03-30T00:07:56.084Z,11.19
2019-03-30T00:09:01.584Z,11.17
2019-03-30T00:10:07.103Z,11.20
2019-03-30T00:11:12.605Z,11.10
2019-03-30T00:12:18.113Z,11.09
2019-03-30T00:13:23.623Z,11.13
2019-03-30T00:14:29.138Z,11.10
2019-03-30T00:15:34.651Z,11.09
2019-03-30T00:16:40.151Z,11.02
2019-03-30T00:17:45.671Z,10.99
2019-03-30T00:18:51.183Z,10.99
2019-03-30T00:19:56.679Z,10.94
2019-03-30T00:21:02.197Z,10.96
2019-03-30T00:22:07.723Z,10.96
2019-03-30T00:23:13.219Z,11.06
2019-03-30T00:24:18.731Z,11.01
2019-03-30T00:25:24.229Z,10.86
2019-03-30T00:26:29.759Z,10.89
2019-03-30T00:27:35.248Z,10.78
2019-03-30T00:28:40.764Z,10.95
2019-03-30T00:29:46.276Z,10.83
2019-03-30T00:30:51.789Z,10.89
2019-03-30T00:31:57.291Z,10.80
2019-03-30T00:33:02.802Z,10.76
2019-03-30T00:34:08.314Z,10.73
2019-03-30T00:35:13.829Z,10.80
2019-03-30T00:36:19.334Z,10.76
2019-03-30T00:37:24.856Z,10.73
2019-03-30T00:38:30.351Z,10.81
2019-03-30T00:39:35.875Z,10.68
2019-03-30T00:40:41.375Z,10.74
2019-03-30T00:41:47.234Z,10.73
2019-03-30T00:42:52.397Z,10.70
2019-03-30T00:43:57.903Z,10.68
2019-03-30T00:45:03.418Z,10.71
2019-03-30T00:46:08.922Z,10.60
2019-03-30T00:47:14.440Z,10.58
2019-03-30T00:48:19.943Z,10.58
2019-03-30T00:49:25.489Z,10.56
2019-03-30T00:50:30.959Z,10.58
2019-03-30T00:51:36.475Z,10.56
2019-03-30T00:52:41.997Z,10.55
2019-03-30T00:53:47.496Z,10.51
2019-03-30T00:54:52.999Z,10.51
2019-03-30T00:55:58.529Z,10.51
2019-03-30T00:57:04.021Z,10.43
2019-03-30T00:58:09.531Z,10.46
2019-03-30T00:59:15.047Z,10.42
2019-03-30T01:00:20.550Z,10.40
2019-03-30T01:01:26.060Z,10.40
2019-03-30T01:02:31.561Z,10.37
2019-03-30T01:03:37.084Z,10.39
2019-03-30T01:04:42.587Z,10.33
2019-03-30T01:05:48.125Z,10.33
2019-03-30T01:06:53.609Z,10.26
2019-03-30T01:07:59.113Z,10.24
2019-03-30T01:09:04.630Z,10.25
2019-03-30T01:10:10.132Z,10.18
2019-03-30T01:11:15.643Z,10.10
2019-03-30T01:12:21.159Z,10.14
2019-03-30T01:13:26.669Z,10.10
2019-03-30T01:14:32.174Z,10.10
2019-03-30T01:15:37.680Z,10.12
2019-03-30T01:16:43.192Z,10.14
2019-03-30T01:17:48.705Z,10.06
2019-03-30T01:18:54.208Z,10.12
2019-03-30T01:20:03.276Z,10.03
2019-03-30T01:21:05.246Z,10.00
2019-03-30T01:22:10.739Z,10.03
2019-03-30T01:23:16.255Z,10.00
2019-03-30T01:24:21.761Z,10.00
2019-03-30T01:25:27.330Z,9.91
2019-03-30T01:26:32.777Z,9.88
2019-03-30T01:27:38.283Z,9.88
2019-03-30T01:28:43.798Z,9.83
2019-03-30T01:29:49.309Z,9.86
2019-03-30T01:30:54.836Z,9.83
2019-03-30T01:32:00.333Z,9.89
2019-03-30T01:33:05.835Z,9.85
2019-03-30T01:34:11.342Z,9.82
2019-03-30T01:35:16.949Z,9.82
2019-03-30T01:36:22.364Z,9.83
2019-03-30T01:37:27.880Z,9.81
2019-03-30T01:38:33.393Z,9.82
2019-03-30T01:39:38.900Z,9.78
2019-03-30T01:40:44.404Z,9.88
2019-03-30T01:41:49.903Z,9.83
2019-03-30T01:42:55.412Z,9.82
2019-03-30T01:44:00.934Z,9.76
2019-03-30T01:45:06.434Z,9.71
2019-03-30T01:46:11.951Z,9.68
2019-03-30T01:47:17.454Z,9.71
2019-03-30T01:48:22.972Z,9.76
2019-03-30T01:49:28.513Z,9.71
2019-03-30T01:50:33.980Z,9.71
2019-03-30T01:51:39.494Z,9.70
2019-03-30T01:52:45.000Z,9.67
2019-03-30T01:53:50.509Z,9.63
2019-03-30T01:54:56.026Z,9.68
2019-03-30T01:56:01.536Z,9.67
2019-03-30T01:57:07.046Z,9.64
2019-03-30T01:58:12.550Z,9.61
2019-03-30T01:59:18.059Z,9.61
2019-03-30T02:00:23.565Z,9.66
2019-03-30T02:01:29.073Z,9.60
2019-03-30T02:02:34.591Z,9.53
2019-03-30T02:03:40.098Z,9.53
2019-03-30T02:04:45.602Z,9.52
2019-03-30T02:05:51.110Z,9.60
2019-03-30T02:06:56.621Z,9.53
2019-03-30T02:08:02.128Z,9.58
2019-03-30T02:09:07.641Z,9.49
2019-03-30T02:10:13.151Z,9.57
2019-03-30T02:11:18.657Z,9.49
2019-03-30T02:12:24.167Z,9.52
2019-03-30T02:13:29.695Z,9.49
2019-03-30T02:14:35.191Z,9.46
2019-03-30T02:15:40.695Z,9.43
2019-03-30T02:16:46.201Z,9.35
2019-03-30T02:17:51.714Z,9.35
2019-03-30T02:18:57.233Z,9.39
2019-03-30T02:20:02.741Z,9.38
2019-03-30T02:21:08.247Z,9.35
2019-03-30T02:22:13.753Z,9.35
2019-03-30T02:23:19.259Z,9.39
2019-03-30T02:24:24.762Z,9.40
2019-03-30T02:25:30.282Z,9.38
2019-03-30T02:26:35.785Z,9.38
2019-03-30T02:27:41.292Z,9.34
2019-03-30T02:28:46.807Z,9.39
2019-03-30T02:29:52.310Z,9.35
2019-03-30T02:30:57.822Z,9.39
2019-03-30T02:32:03.330Z,9.35
2019-03-30T02:33:08.849Z,9.34
2019-03-30T02:34:14.351Z,9.39
2019-03-30T02:35:19.850Z,9.39
2019-03-30T02:36:25.368Z,9.35
2019-03-30T02:37:30.874Z,9.34
2019-03-30T02:38:36.396Z,9.39
2019-03-30T02:39:41.892Z,9.34
2019-03-30T02:40:47.405Z,9.38
2019-03-30T02:41:52.907Z,9.38
2019-03-30T02:42:58.420Z,9.35
2019-03-30T02:44:03.923Z,9.31
2019-03-30T02:45:09.458Z,9.25
2019-03-30T02:46:14.939Z,9.34
2019-03-30T02:47:20.469Z,9.28
2019-03-30T02:48:25.976Z,9.28
2019-03-30T02:49:31.480Z,9.30
2019-03-30T02:50:49.574Z,9.32
2019-03-30T02:51:42.488Z,9.30
2019-03-30T02:52:48.004Z,9.31
2019-03-30T02:53:53.513Z,9.30
2019-03-30T02:54:59.023Z,9.23
2019-03-30T02:56:04.535Z,9.18
2019-03-30T02:57:10.050Z,9.18
2019-03-30T02:58:15.561Z,9.20
2019-03-30T02:59:21.052Z,9.23
2019-03-30T03:00:26.569Z,9.13
2019-03-30T03:01:32.080Z,9.20
2019-03-30T03:02:37.583Z,9.23
2019-03-30T03:03:43.093Z,9.21
2019-03-30T03:04:48.594Z,9.21
2019-03-30T03:05:54.106Z,9.23
2019-03-30T03:06:59.617Z,9.20
2019-03-30T03:08:05.145Z,9.12
2019-03-30T03:09:10.641Z,9.16
2019-03-30T03:10:16.154Z,9.13
2019-03-30T03:11:21.664Z,9.13
2019-03-30T03:12:27.162Z,9.09
2019-03-30T03:13:32.668Z,9.12
2019-03-30T03:14:38.178Z,9.12
2019-03-30T03:15:43.700Z,9.12
2019-03-30T03:16:49.208Z,9.12
2019-03-30T03:17:54.709Z,9.10
2019-03-30T03:19:00.224Z,9.13
2019-03-30T03:20:05.714Z,9.13
2019-03-30T03:21:11.254Z,9.15
2019-03-30T03:22:16.741Z,9.12
2019-03-30T03:23:22.251Z,9.12
2019-03-30T03:24:27.758Z,9.15
2019-03-30T03:25:33.270Z,9.16
2019-03-30T03:26:38.776Z,9.12
2019-03-30T03:27:44.289Z,9.13
2019-03-30T03:28:49.802Z,9.20
2019-03-30T03:29:55.302Z,9.09
2019-03-30T03:31:00.901Z,9.12
2019-03-30T03:32:06.325Z,9.13
2019-03-30T03:33:11.829Z,9.12
2019-03-30T03:34:17.333Z,9.15
2019-03-30T03:35:22.845Z,9.13
2019-03-30T03:36:28.348Z,9.12
2019-03-30T03:37:44.824Z,9.12
2019-03-30T03:38:39.397Z,9.16
2019-03-30T03:39:44.877Z,9.18
2019-03-30T03:40:50.396Z,9.13
2019-03-30T03:41:55.913Z,9.15
2019-03-30T03:43:01.405Z,9.20
2019-03-30T03:44:06.915Z,9.18
2019-03-30T03:45:12.448Z,9.24
2019-03-30T03:46:17.932Z,9.21
2019-03-30T03:47:23.480Z,9.21
2019-03-30T03:48:28.946Z,9.21
2019-03-30T03:49:34.463Z,9.23
2019-03-30T03:50:39.982Z,9.13
2019-03-30T03:51:45.484Z,9.10
2019-03-30T03:52:50.995Z,9.21
2019-03-30T03:53:56.494Z,9.12
2019-03-30T03:55:02.032Z,9.20
2019-03-30T03:56:07.524Z,9.13
2019-03-30T03:57:13.016Z,9.12
2019-03-30T03:58:18.531Z,9.16
2019-03-30T03:59:24.037Z,9.09
2019-03-30T04:00:29.544Z,9.04
2019-03-30T04:01:35.059Z,9.04
2019-03-30T04:02:40.566Z,9.05
2019-03-30T04:03:46.075Z,9.01
2019-03-30T04:04:51.584Z,9.04
2019-03-30T04:05:57.093Z,8.96
2019-03-30T04:07:02.605Z,8.99
2019-03-30T04:08:08.101Z,9.01
2019-03-30T04:09:13.617Z,8.94
2019-03-30T04:10:19.127Z,8.94
2019-03-30T04:11:24.662Z,8.88
2019-03-30T04:12:30.157Z,8.94
2019-03-30T04:13:35.652Z,8.93
2019-03-30T04:14:41.161Z,8.97
2019-03-30T04:15:46.672Z,8.94
2019-03-30T04:16:52.177Z,8.93
2019-03-30T04:17:57.678Z,8.91
2019-03-30T04:19:03.202Z,8.90
2019-03-30T04:20:08.704Z,8.91
2019-03-30T04:21:14.212Z,8.99
2019-03-30T04:22:19.825Z,8.91
2019-03-30T04:23:25.224Z,8.91
2019-03-30T04:24:30.741Z,8.79
2019-03-30T04:25:36.242Z,8.96
2019-03-30T04:26:41.761Z,8.83
2019-03-30T04:27:47.269Z,8.83
2019-03-30T04:28:52.767Z,8.84
2019-03-30T04:29:58.282Z,8.84
2019-03-30T04:31:03.784Z,8.79
2019-03-30T04:32:09.310Z,8.79
2019-03-30T04:33:14.807Z,8.86
2019-03-30T04:34:20.328Z,8.75
2019-03-30T04:35:25.829Z,8.81
2019-03-30T04:36:31.336Z,8.78
2019-03-30T04:37:36.836Z,8.72
2019-03-30T04:38:42.346Z,8.78
2019-03-30T04:39:47.851Z,8.76
2019-03-30T04:40:53.367Z,8.86
2019-03-30T04:41:58.872Z,8.83
2019-03-30T04:43:04.392Z,8.84
2019-03-30T04:44:09.894Z,8.79
2019-03-30T04:45:15.396Z,8.84
2019-03-30T04:46:20.917Z,8.81
2019-03-30T04:47:26.426Z,8.81
2019-03-30T04:48:31.927Z,8.81
2019-03-30T04:49:37.438Z,8.81
2019-03-30T04:50:42.940Z,8.83
2019-03-30T04:51:57.488Z,8.87
2019-03-30T04:52:53.953Z,8.83
2019-03-30T04:53:59.468Z,8.83
2019-03-30T04:55:04.976Z,8.79
2019-03-30T04:56:10.484Z,8.88
2019-03-30T04:57:15.986Z,8.75
2019-03-30T04:58:21.507Z,8.84
2019-03-30T04:59:27.008Z,8.88
2019-03-30T05:00:32.523Z,8.86
2019-03-30T05:01:38.028Z,8.97
2019-03-30T05:02:43.535Z,8.94
2019-03-30T05:03:49.043Z,8.88
2019-03-30T05:04:54.549Z,8.91
2019-03-30T05:06:00.067Z,8.88
2019-03-30T05:07:05.580Z,8.91
2019-03-30T05:08:11.080Z,8.94
2019-03-30T05:09:16.579Z,8.93
2019-03-30T05:10:22.090Z,8.94
2019-03-30T05:11:27.613Z,8.91
2019-03-30T05:12:33.116Z,8.97
2019-03-30T05:13:38.621Z,8.87
2019-03-30T05:14:44.137Z,8.94
2019-03-30T05:15:49.635Z,8.93
2019-03-30T05:16:55.146Z,8.93
2019-03-30T05:18:00.653Z,8.91
2019-03-30T05:19:06.162Z,8.97
2019-03-30T05:20:11.672Z,8.88
2019-03-30T05:21:17.182Z,8.91
2019-03-30T05:22:22.686Z,8.99
2019-03-30T05:23:28.200Z,8.90
2019-03-30T05:24:33.704Z,8.87
2019-03-30T05:25:39.216Z,8.96
2019-03-30T05:26:44.723Z,8.99
2019-03-30T05:27:50.234Z,8.97
2019-03-30T05:28:55.739Z,8.87
2019-03-30T05:30:01.250Z,8.97
2019-03-30T05:31:06.760Z,8.88
2019-03-30T05:32:12.271Z,8.94
2019-03-30T05:33:17.780Z,8.88
2019-03-30T05:34:23.282Z,8.90
2019-03-30T05:35:28.799Z,8.96
2019-03-30T05:36:34.301Z,8.91
2019-03-30T05:37:39.810Z,8.90
2019-03-30T05:38:45.328Z,8.93
2019-03-30T05:39:50.827Z,8.97
2019-03-30T05:40:56.339Z,9.02
2019-03-30T05:42:01.841Z,9.02
2019-03-30T05:43:07.350Z,9.06
2019-03-30T05:44:12.863Z,8.94
2019-03-30T05:45:18.370Z,9.02
2019-03-30T05:46:23.875Z,8.93
2019-03-30T05:47:29.383Z,8.97
2019-03-30T05:48:34.976Z,9.01
2019-03-30T05:49:40.395Z,8.99
2019-03-30T05:50:45.905Z,9.04
2019-03-30T05:51:51.423Z,9.04
2019-03-30T05:52:56.928Z,9.09
2019-03-30T05:54:02.438Z,9.04
2019-03-30T05:55:07.946Z,9.15
2019-03-30T05:56:13.462Z,9.13
2019-03-30T05:57:18.957Z,9.15
2019-03-30T05:58:24.469Z,9.15
2019-03-30T05:59:29.978Z,9.23
2019-03-30T06:00:35.486Z,9.25
2019-03-30T06:01:40.996Z,9.24
2019-03-30T06:02:46.518Z,9.28
2019-03-30T06:03:52.014Z,9.28
2019-03-30T06:04:58.712Z,9.34
2019-03-30T06:06:03.031Z,9.32
2019-03-30T06:07:08.557Z,9.24
2019-03-30T06:08:14.062Z,9.25
2019-03-30T06:09:19.562Z,9.30
2019-03-30T06:10:25.077Z,9.42
2019-03-30T06:11:30.582Z,9.34
2019-03-30T06:12:36.087Z,9.38
2019-03-30T06:13:41.598Z,9.40
2019-03-30T06:14:47.112Z,9.39
2019-03-30T06:15:52.629Z,9.52
2019-03-30T06:16:58.142Z,9.56
2019-03-30T06:18:03.672Z,9.53
2019-03-30T06:19:09.151Z,9.58
2019-03-30T06:20:14.649Z,9.56
2019-03-30T06:21:20.153Z,9.53
2019-03-30T06:22:39.508Z,9.68
2019-03-30T06:23:31.178Z,9.50
2019-03-30T06:24:36.680Z,9.58
2019-03-30T06:25:42.188Z,9.67
2019-03-30T06:26:47.701Z,9.64
2019-03-30T06:27:53.205Z,9.73
2019-03-30T06:28:58.720Z,9.81
2019-03-30T06:30:04.239Z,9.83
2019-03-30T06:31:09.737Z,9.79
2019-03-30T06:32:15.249Z,9.93
2019-03-30T06:33:20.752Z,9.94
2019-03-30T06:34:26.260Z,9.97
2019-03-30T06:35:31.772Z,9.99
2019-03-30T06:36:37.271Z,10.07
2019-03-30T06:37:42.790Z,10.09
2019-03-30T06:38:48.295Z,10.12
2019-03-30T06:39:53.808Z,10.19
2019-03-30T06:40:59.316Z,10.28
2019-03-30T06:42:04.834Z,10.30
2019-03-30T06:43:10.336Z,10.37
2019-03-30T06:44:15.855Z,10.46
2019-03-30T06:45:21.352Z,10.55
2019-03-30T06:46:26.868Z,10.65
2019-03-30T06:47:32.370Z,10.59
2019-03-30T06:48:37.883Z,10.73
2019-03-30T06:49:43.394Z,10.76
2019-03-30T06:50:48.902Z,10.84
2019-03-30T06:51:54.409Z,10.95
2019-03-30T06:52:59.914Z,10.96
2019-03-30T06:54:05.428Z,11.02
2019-03-30T06:55:10.932Z,11.09
2019-03-30T06:56:16.438Z,11.10
2019-03-30T06:57:21.950Z,11.29
2019-03-30T06:58:30.619Z,11.29
2019-03-30T06:59:32.976Z,11.43
2019-03-30T07:00:38.489Z,11.43
2019-03-30T07:01:43.998Z,11.43
2019-03-30T07:02:49.504Z,11.56
2019-03-30T07:03:55.012Z,11.68
2019-03-30T07:05:00.521Z,11.70
2019-03-30T07:06:06.037Z,11.70
2019-03-30T07:07:11.542Z,11.82
2019-03-30T07:08:17.054Z,11.89
2019-03-30T07:09:22.562Z,12.06
2019-03-30T07:10:28.076Z,12.06
2019-03-30T07:11:33.584Z,12.11
2019-03-30T07:12:39.092Z,12.20
2019-03-30T07:13:44.615Z,12.16
2019-03-30T07:14:50.110Z,12.30
2019-03-30T07:15:55.627Z,12.30
2019-03-30T07:17:01.844Z,12.44
2019-03-30T07:18:06.640Z,12.44
2019-03-30T07:19:12.153Z,12.59
2019-03-30T07:20:17.669Z,12.60
2019-03-30T07:21:23.215Z,12.56
2019-03-30T07:22:28.697Z,12.66
2019-03-30T07:23:34.201Z,12.78
2019-03-30T07:24:39.725Z,12.85
2019-03-30T07:25:45.225Z,12.89
2019-03-30T07:26:50.736Z,13.02
2019-03-30T07:27:56.243Z,13.17
2019-03-30T07:29:01.840Z,13.07
2019-03-30T07:30:07.263Z,13.22
2019-03-30T07:31:12.774Z,13.22
2019-03-30T07:32:18.293Z,13.29
2019-03-30T07:33:23.798Z,13.33
2019-03-30T07:34:29.305Z,13.41
2019-03-30T07:35:34.817Z,13.41
2019-03-30T07:36:40.327Z,13.43
2019-03-30T07:37:45.834Z,13.54
2019-03-30T07:38:51.347Z,13.55
2019-03-30T07:39:56.866Z,13.62
2019-03-30T07:41:02.372Z,13.73
2019-03-30T07:42:07.884Z,13.81
2019-03-30T07:43:13.398Z,13.81
2019-03-30T07:44:18.908Z,13.95
2019-03-30T07:45:24.430Z,13.98
2019-03-30T07:46:29.932Z,14.09
2019-03-30T07:47:35.450Z,14.12
2019-03-30T07:48:40.945Z,14.27
2019-03-30T07:49:46.467Z,14.24
2019-03-30T07:50:52.041Z,14.32
2019-03-30T07:51:57.511Z,14.37
2019-03-30T07:53:02.994Z,14.29
2019-03-30T07:54:08.510Z,14.50
2019-03-30T07:55:14.019Z,14.61
2019-03-30T07:56:19.532Z,14.61
2019-03-30T07:57:25.046Z,14.57
2019-03-30T07:58:30.569Z,14.69
2019-03-30T07:59:36.078Z,14.80
2019-03-30T08:00:41.584Z,14.86
2019-03-30T08:01:47.093Z,14.98
2019-03-30T08:02:52.613Z,14.98
2019-03-30T08:03:58.120Z,14.99
2019-03-30T08:05:03.630Z,15.01
2019-03-30T08:06:09.140Z,15.05
2019-03-30T08:07:14.653Z,15.17
2019-03-30T08:08:20.162Z,15.24
2019-03-30T08:09:25.677Z,15.23
2019-03-30T08:10:31.191Z,15.36
2019-03-30T08:11:36.698Z,15.35
2019-03-30T08:12:42.226Z,15.51
2019-03-30T08:13:47.734Z,15.46
2019-03-30T08:14:53.231Z,15.56
2019-03-30T08:15:58.749Z,15.61
2019-03-30T08:17:04.276Z,15.57
2019-03-30T08:18:09.776Z,15.75
2019-03-30T08:19:15.288Z,15.79
2019-03-30T08:20:20.833Z,15.84
2019-03-30T08:21:26.312Z,15.85
2019-03-30T08:22:31.827Z,15.96
2019-03-30T08:23:40.636Z,15.99
2019-03-30T08:24:42.851Z,16.11
2019-03-30T08:25:48.361Z,16.09
2019-03-30T08:26:53.878Z,16.06
2019-03-30T08:27:59.398Z,16.06
2019-03-30T08:29:04.962Z,16.16
2019-03-30T08:30:10.416Z,16.31
2019-03-30T08:31:15.944Z,16.27
2019-03-30T08:32:21.442Z,16.38
2019-03-30T08:33:26.953Z,16.37
2019-03-30T08:34:32.476Z,16.45
2019-03-30T08:35:37.977Z,16.49
2019-03-30T08:36:43.494Z,16.55
2019-03-30T08:37:49.009Z,16.62
2019-03-30T08:38:54.521Z,16.63
2019-03-30T08:40:00.079Z,16.67
2019-03-30T08:41:05.582Z,16.83
2019-03-30T08:42:11.062Z,16.81
2019-03-30T08:43:16.571Z,16.80
2019-03-30T08:44:22.101Z,16.95
2019-03-30T08:45:27.596Z,16.92
2019-03-30T08:46:33.112Z,16.92
2019-03-30T08:47:38.625Z,16.99
2019-03-30T08:48:44.139Z,17.00
2019-03-30T08:49:49.652Z,17.07
2019-03-30T08:50:55.164Z,17.18
2019-03-30T08:52:00.673Z,17.29
2019-03-30T08:53:06.197Z,17.33
2019-03-30T08:54:11.704Z,17.35
2019-03-30T08:55:17.216Z,17.35
2019-03-30T08:56:22.738Z,17.50
2019-03-30T08:57:28.247Z,17.54
2019-03-30T08:58:33.766Z,17.48
2019-03-30T08:59:39.273Z,17.57
2019-03-30T09:00:44.789Z,17.66
2019-03-30T09:01:50.303Z,17.70
2019-03-30T09:02:55.818Z,17.64
2019-03-30T09:04:01.325Z,17.70
2019-03-30T09:05:06.840Z,17.73
2019-03-30T09:06:12.360Z,17.78
2019-03-30T09:07:17.876Z,17.78
2019-03-30T09:08:23.386Z,17.81
2019-03-30T09:09:28.894Z,17.87
2019-03-30T09:10:34.417Z,17.81
2019-03-30T09:11:43.171Z,17.91
2019-03-30T09:12:45.451Z,17.88
2019-03-30T09:13:50.951Z,17.89
2019-03-30T09:14:56.471Z,17.97
2019-03-30T09:16:01.984Z,17.91
2019-03-30T09:17:07.504Z,18.02
2019-03-30T09:18:13.013Z,17.89
2019-03-30T09:19:18.531Z,18.00
2019-03-30T09:20:24.034Z,18.02
2019-03-30T09:21:29.555Z,17.99
2019-03-30T09:22:35.067Z,18.21
2019-03-30T09:23:40.581Z,18.02
2019-03-30T09:24:46.093Z,18.09
2019-03-30T09:25:51.633Z,18.17
2019-03-30T09:26:57.123Z,18.17
2019-03-30T09:28:02.638Z,18.12
2019-03-30T09:29:08.152Z,18.22
2019-03-30T09:30:13.674Z,18.28
2019-03-30T09:31:19.182Z,18.17
2019-03-30T09:32:24.697Z,18.25
2019-03-30T09:33:30.219Z,18.24
2019-03-30T09:34:35.730Z,18.34
2019-03-30T09:35:41.246Z,18.33
2019-03-30T09:36:46.894Z,18.29
2019-03-30T09:37:52.280Z,18.44
2019-03-30T09:38:57.779Z,18.46
2019-03-30T09:40:03.314Z,18.47
2019-03-30T09:41:08.811Z,18.55
2019-03-30T09:42:14.328Z,18.55
2019-03-30T09:43:19.846Z,18.58
2019-03-30T09:44:25.344Z,18.74
2019-03-30T09:45:30.873Z,18.64
2019-03-30T09:46:36.382Z,18.73
2019-03-30T09:47:41.898Z,18.72
2019-03-30T09:48:47.409Z,18.67
2019-03-30T09:49:52.936Z,18.79
2019-03-30T09:50:58.443Z,18.83
2019-03-30T09:52:03.955Z,18.77
2019-03-30T09:53:09.480Z,18.83
2019-03-30T09:54:23.741Z,18.92
2019-03-30T09:55:20.495Z,18.87
2019-03-30T09:56:26.013Z,18.92
2019-03-30T09:57:31.534Z,18.95
2019-03-30T09:58:37.044Z,18.92
2019-03-30T09:59:42.558Z,19.02
2019-03-30T10:00:48.072Z,19.13
2019-03-30T10:01:53.590Z,19.14
2019-03-30T10:02:59.112Z,19.18
2019-03-30T10:04:04.619Z,19.24
2019-03-30T10:05:10.132Z,19.25
2019-03-30T10:06:15.651Z,19.18
2019-03-30T10:07:21.164Z,19.15
2019-03-30T10:08:26.688Z,19.23
2019-03-30T10:09:32.195Z,19.31
2019-03-30T10:10:37.717Z,19.31
2019-03-30T10:11:43.220Z,19.25
2019-03-30T10:12:48.739Z,19.28
2019-03-30T10:13:54.254Z,19.31
2019-03-30T10:14:59.767Z,19.38
2019-03-30T10:16:05.279Z,19.39
2019-03-30T10:17:10.799Z,19.46
2019-03-30T10:18:16.323Z,19.50
2019-03-30T10:19:21.831Z,19.48
2019-03-30T10:20:27.355Z,19.50
2019-03-30T10:21:32.861Z,19.48
2019-03-30T10:22:41.825Z,19.47
2019-03-30T10:23:43.935Z,19.54
2019-03-30T10:24:49.415Z,19.51
2019-03-30T10:25:54.923Z,19.51
2019-03-30T10:27:00.439Z,19.50
2019-03-30T10:28:05.964Z,19.61
2019-03-30T10:29:11.465Z,19.66
2019-03-30T10:30:16.981Z,19.58
2019-03-30T10:31:22.497Z,19.68
2019-03-30T10:32:28.011Z,19.70
2019-03-30T10:33:33.531Z,19.75
2019-03-30T10:34:39.793Z,19.79
2019-03-30T10:35:44.564Z,19.80
2019-03-30T10:36:50.078Z,19.75
2019-03-30T10:37:55.591Z,19.79
2019-03-30T10:39:01.108Z,19.83
2019-03-30T10:40:06.617Z,19.78
2019-03-30T10:41:12.142Z,19.76
2019-03-30T10:42:17.658Z,19.87
2019-03-30T10:43:23.170Z,19.83
2019-03-30T10:44:28.686Z,19.88
2019-03-30T10:45:34.201Z,19.90
2019-03-30T10:46:39.722Z,19.86
2019-03-30T10:47:45.237Z,19.95
2019-03-30T10:48:50.742Z,19.91
2019-03-30T10:49:56.277Z,19.90
2019-03-30T10:51:01.779Z,19.95
2019-03-30T10:52:07.288Z,19.91
2019-03-30T10:53:12.804Z,19.97
2019-03-30T10:54:18.318Z,19.94
2019-03-30T10:55:23.835Z,20.00
2019-03-30T10:56:29.350Z,20.06
2019-03-30T10:57:34.872Z,19.98
2019-03-30T10:58:40.383Z,20.10
2019-03-30T10:59:45.916Z,20.23
2019-03-30T11:00:51.413Z,20.09
2019-03-30T11:01:56.929Z,20.16
2019-03-30T11:03:02.526Z,20.13
2019-03-30T11:04:07.965Z,20.31
2019-03-30T11:05:13.474Z,20.23
2019-03-30T11:06:18.992Z,20.27
2019-03-30T11:07:24.511Z,20.18
2019-03-30T11:08:30.025Z,20.20
2019-03-30T11:09:35.547Z,20.31
2019-03-30T11:10:41.055Z,20.38
2019-03-30T11:11:46.583Z,20.41
2019-03-30T11:12:52.089Z,20.42
2019-03-30T11:13:57.603Z,20.41
2019-03-30T11:15:03.132Z,20.39
2019-03-30T11:16:08.648Z,20.49
2019-03-30T11:17:14.162Z,20.51
2019-03-30T11:18:19.665Z,20.49
2019-03-30T11:19:25.198Z,20.47
2019-03-30T11:20:30.711Z,20.56
2019-03-30T11:21:36.233Z,20.59
2019-03-30T11:22:41.766Z,20.46
2019-03-30T11:23:47.263Z,20.49
2019-03-30T11:25:06.251Z,20.42
2019-03-30T11:25:58.286Z,20.51
2019-03-30T11:27:03.829Z,20.54
2019-03-30T11:28:09.370Z,20.53
2019-03-30T11:29:14.876Z,20.53
2019-03-30T11:30:20.347Z,20.47
2019-03-30T11:31:25.861Z,20.64
2019-03-30T11:32:31.377Z,20.68
2019-03-30T11:33:36.902Z,20.65
2019-03-30T11:34:42.431Z,20.51
2019-03-30T11:35:47.929Z,20.69
2019-03-30T11:36:53.448Z,20.68
2019-03-30T11:37:59.006Z,20.69
2019-03-30T11:39:04.518Z,20.69
2019-03-30T11:40:10.022Z,20.66
2019-03-30T11:41:15.555Z,20.81
2019-03-30T11:42:21.052Z,20.89
2019-03-30T11:43:26.538Z,20.95
2019-03-30T11:44:32.060Z,20.90
2019-03-30T11:45:37.584Z,21.04
2019-03-30T11:46:43.086Z,21.05
2019-03-30T11:47:48.598Z,21.20
2019-03-30T11:48:54.120Z,21.24
2019-03-30T11:49:59.642Z,21.34
2019-03-30T11:51:05.155Z,21.30
2019-03-30T11:52:10.676Z,21.39
2019-03-30T11:53:16.187Z,21.34
2019-03-30T11:54:21.709Z,21.42
2019-03-30T11:55:27.232Z,21.51
2019-03-30T11:56:32.746Z,21.57
2019-03-30T11:57:38.252Z,21.60
2019-03-30T11:58:43.781Z,21.61
2019-03-30T11:59:49.276Z,21.61
2019-03-30T12:00:54.802Z,21.72
2019-03-30T12:02:00.355Z,21.88
2019-03-30T12:03:05.860Z,21.91
2019-03-30T12:04:11.362Z,21.95
2019-03-30T12:05:16.895Z,22.01
2019-03-30T12:06:22.395Z,22.12
2019-03-30T12:07:27.905Z,22.13
2019-03-30T12:08:33.441Z,22.27
2019-03-30T12:09:38.933Z,22.39
2019-03-30T12:10:44.460Z,22.39
2019-03-30T12:11:49.960Z,22.35
2019-03-30T12:12:55.485Z,22.46
2019-03-30T12:14:01.004Z,22.54
2019-03-30T12:15:06.524Z,22.41
2019-03-30T12:16:12.038Z,22.39
2019-03-30T12:17:17.569Z,22.28
2019-03-30T12:18:23.169Z,22.19
2019-03-30T12:19:28.597Z,22.07
2019-03-30T12:20:34.190Z,22.06
2019-03-30T12:21:39.625Z,22.12
2019-03-30T12:22:45.188Z,22.09
2019-03-30T12:23:50.657Z,22.12
2019-03-30T12:24:56.197Z,22.06
2019-03-30T12:26:01.707Z,22.12
2019-03-30T12:27:07.203Z,22.10
2019-03-30T12:28:12.745Z,22.19
2019-03-30T12:29:18.238Z,22.17
2019-03-30T12:30:23.775Z,22.22
2019-03-30T12:31:29.298Z,22.23
2019-03-30T12:32:35.330Z,22.29
2019-03-30T12:33:40.322Z,22.35
2019-03-30T12:34:45.840Z,22.37
2019-03-30T12:35:51.346Z,22.41
2019-03-30T12:36:56.863Z,22.41
2019-03-30T12:38:02.372Z,22.54
2019-03-30T12:39:07.900Z,22.50
2019-03-30T12:40:13.411Z,22.56
2019-03-30T12:41:18.941Z,22.68
2019-03-30T12:42:24.457Z,22.69
2019-03-30T12:43:29.960Z,22.71
2019-03-30T12:44:35.491Z,22.72
2019-03-30T12:45:41.013Z,22.84
2019-03-30T12:46:46.530Z,22.89
2019-03-30T12:47:52.043Z,22.93
2019-03-30T12:48:57.582Z,22.90
2019-03-30T12:50:03.079Z,23.01
2019-03-30T12:51:08.605Z,23.08
2019-03-30T12:52:14.149Z,23.19
2019-03-30T12:53:19.622Z,23.22
2019-03-30T12:54:25.156Z,23.20
2019-03-30T12:55:30.682Z,23.24
2019-03-30T12:56:36.176Z,23.27
2019-03-30T12:57:41.698Z,23.34
2019-03-30T12:58:47.219Z,23.35
2019-03-30T12:59:52.738Z,23.40
2019-03-30T13:00:58.248Z,23.47
2019-03-30T13:02:03.767Z,23.55
2019-03-30T13:03:09.298Z,23.58
2019-03-30T13:04:14.807Z,23.65
2019-03-30T13:05:20.325Z,23.68
2019-03-30T13:06:25.854Z,23.65
2019-03-30T13:07:31.372Z,23.75
2019-03-30T13:08:36.867Z,23.76
2019-03-30T13:09:42.400Z,23.72
2019-03-30T13:10:47.909Z,23.67
2019-03-30T13:11:53.431Z,23.67
2019-03-30T13:12:58.954Z,23.72
2019-03-30T13:14:04.496Z,23.89
2019-03-30T13:15:09.983Z,23.79
2019-03-30T13:16:15.500Z,23.86
2019-03-30T13:17:21.034Z,23.89
2019-03-30T13:18:26.548Z,23.90
2019-03-30T13:19:32.059Z,23.94
2019-03-30T13:20:37.606Z,23.92
2019-03-30T13:21:52.494Z,24.08
2019-03-30T13:22:48.627Z,24.22
2019-03-30T13:23:54.155Z,24.24
2019-03-30T13:25:00.410Z,24.26
2019-03-30T13:26:05.167Z,24.27
2019-03-30T13:27:12.909Z,24.41
2019-03-30T13:28:16.205Z,24.44
2019-03-30T13:29:21.720Z,24.50
2019-03-30T13:30:27.253Z,24.54
2019-03-30T13:31:32.804Z,24.60
2019-03-30T13:32:38.274Z,24.76
2019-03-30T13:33:43.839Z,25.01
2019-03-30T13:34:49.325Z,25.54
2019-03-30T13:35:54.821Z,26.65
2019-03-30T13:37:00.355Z,28.25
2019-03-30T13:38:05.866Z,29.89
2019-03-30T13:39:11.386Z,31.20
2019-03-30T13:40:16.905Z,32.62
2019-03-30T13:41:22.425Z,33.82
2019-03-30T13:42:28.799Z,34.69
2019-03-30T13:43:33.472Z,35.42
2019-03-30T13:44:38.984Z,35.66
2019-03-30T13:45:44.499Z,35.76
2019-03-30T13:46:51.003Z,35.81
2019-03-30T13:47:55.541Z,36.03
2019-03-30T13:49:01.065Z,36.49
2019-03-30T13:50:06.598Z,36.92
2019-03-30T13:51:12.116Z,37.21
2019-03-30T13:52:17.646Z,37.89
2019-03-30T13:53:23.158Z,38.39
2019-03-30T13:54:28.699Z,38.66
2019-03-30T13:55:34.197Z,38.82
2019-03-30T13:56:39.725Z,38.68
2019-03-30T13:57:45.252Z,38.46
2019-03-30T13:58:50.793Z,37.90
2019-03-30T13:59:56.307Z,36.87
2019-03-30T14:01:01.877Z,35.91
2019-03-30T14:02:07.355Z,34.99
2019-03-30T14:03:12.885Z,33.83
2019-03-30T14:04:18.406Z,32.88
2019-03-30T14:05:23.927Z,32.06
2019-03-30T14:06:29.455Z,31.53
2019-03-30T14:07:34.978Z,31.05
2019-03-30T14:08:40.513Z,30.53
2019-03-30T14:09:46.039Z,30.08
2019-03-30T14:10:51.546Z,29.71
2019-03-30T14:11:57.074Z,29.22
2019-03-30T14:13:02.620Z,29.07